Time;durP1;ratioP1;P1;durP2;ratioP2;P2;SDS_P1;SDS_P2;PMS_P1;PMS_P2;Temp;Humidity;BMP_temperature;BMP_pressure;BME280_temperature;BME280_humidity;BME280_pressure;Samples;Min_cycle;Max_cycle;Signal;HPM_P1;HPM_P2
2021/04/12 05:21:00;;;;;;;33.40;17.70;;;;;;;4.90;69.23;100891.42;1828496;77;26072;-55
2021/04/12 05:24:07;;;;;;;31.57;17.70;;;;;;;5.04;68.65;100888.39;1771227;80;21593;-54
2021/04/12 05:26:55;;;;;;;33.13;19.80;;;;;;;5.31;68.20;100884.55;1699584;84;21640;-55
2021/04/12 05:30:01;;;;;;;29.40;18.75;;;;;;;5.63;66.94;100887.72;1784152;78;21617;-56
2021/04/12 05:32:50;;;;;;;;;;;;;;;5.94;66.61;100880.14;1771352;78;21553;-57
2021/04/12 05:35:38;;;;;;;24.87;16.02;;;;;;;6.29;65.96;100873.12;1778220;80;20386;-57
2021/04/12 05:38:47;;;;;;;27.00;17.32;;;;;;;6.59;64.04;100873.31;1778291;81;21264;-55
2021/04/12 05:41:37;;;;;;;24.63;14.83;;;;;;;6.84;63.22;100864.69;1786056;80;21558;-55
2021/04/12 05:44:33;;;;;;;26.62;16.35;;;;;;;7.13;62.05;100866.08;1780248;78;21560;-55
2021/04/12 05:47:13;;;;;;;24.57;14.90;;;;;;;7.35;60.94;100858.91;1658881;86;21748;-56
2021/04/12 05:50:00;;;;;;;29.45;15.30;;;;;;;7.54;59.38;100863.16;1689278;84;21601;-56
2021/04/12 05:53:05;;;;;;;24.82;14.10;;;;;;;7.72;58.86;100854.98;1708100;84;21645;-55
2021/04/12 05:56:03;;;;;;;22.48;13.48;;;;;;;7.91;58.56;100851.39;1707205;84;22295;-54
2021/04/12 05:58:43;;;;;;;24.72;14.53;;;;;;;8.10;57.61;100856.08;1706700;84;21216;-55
2021/04/12 06:01:50;;;;;;;27.07;13.55;;;;;;;8.25;57.05;100849.71;1678753;85;21336;-55
2021/04/12 06:04:26;;;;;;;24.63;14.70;;;;;;;8.40;56.77;100841.75;1651447;85;21773;-57
2021/04/12 06:07:03;;;;;;;22.87;14.35;;;;;;;8.57;55.75;100844.73;1650937;86;21156;-56
2021/04/12 06:14:43;;;;;;;22.73;12.75;;;;;;;8.80;54.32;100842.12;1679466;85;21187;-56
2021/04/12 06:22:17;;;;;;;19.15;12.00;;;;;;;9.08;53.16;100841.66;1708375;84;21182;-56
2021/04/12 06:25:26;;;;;;;18.27;11.25;;;;;;;9.29;52.25;100834.38;1708513;84;21608;-56
2021/04/12 06:28:41;;;;;;;18.27;11.20;;;;;;;9.42;51.69;100837.67;1702293;84;21560;-56
2021/04/12 06:31:32;;;;;;;18.15;10.32;;;;;;;9.57;51.33;100829.11;1688862;84;21672;-54
2021/04/12 06:34:28;;;;;;;18.25;11.50;;;;;;;9.70;50.77;100825.86;1661226;84;21178;-55
2021/04/12 06:37:30;;;;;;;17.35;10.25;;;;;;;9.79;50.13;100817.27;1672374;84;21682;-55
2021/04/12 06:40:21;;;;;;;17.73;10.25;;;;;;;9.90;49.73;100813.78;1682423;84;21634;-55
2021/04/12 06:43:27;;;;;;;19.55;11.43;;;;;;;10.01;48.74;100815.52;1685080;84;21593;-54
2021/04/12 06:46:09;;;;;;;15.78;9.73;;;;;;;10.10;48.78;100812.12;1648076;86;21860;-55
2021/04/12 06:49:24;;;;;;;15.78;10.38;;;;;;;10.28;48.18;100811.11;1633897;86;21591;-55
2021/04/12 06:52:50;;;;;;;17.40;10.43;;;;;;;10.45;47.76;100805.30;1647480;87;21136;-55
2021/04/12 06:56:18;;;;;;;19.25;9.78;;;;;;;10.68;46.79;100803.31;1649466;86;21138;-55
2021/04/12 06:59:23;;;;;;;19.65;10.28;;;;;;;10.85;45.97;100801.88;1645115;86;21181;-55
2021/04/12 07:02:21;;;;;;;;;;;;;;;10.95;44.77;100797.03;1679684;84;21760;-55
2021/04/12 07:05:41;;;;;;;19.62;9.65;;;;;;;11.03;45.02;100785.41;1689456;84;20198;-57
2021/04/12 07:08:31;;;;;;;18.40;11.48;;;;;;;11.17;44.79;100780.76;1700104;84;21178;-57
2021/04/12 07:11:21;;;;;;;20.43;10.78;;;;;;;11.27;44.20;100778.99;1679939;85;21162;-54
2021/04/12 07:14:33;;;;;;;15.90;9.08;;;;;;;11.38;43.81;100784.11;1645698;86;21175;-56
2021/04/12 07:17:32;;;;;;;17.17;9.00;;;;;;;11.54;42.92;100781.76;1640153;86;21195;-55
2021/04/12 07:20:58;;;;;;;16.97;9.83;;;;;;;11.70;42.76;100775.16;1642103;86;21196;-56
2021/04/12 07:24:10;;;;;;;14.45;8.58;;;;;;;11.83;42.12;100769.18;1660127;86;21194;-55
2021/04/12 07:27:28;;;;;;;15.72;8.93;;;;;;;11.97;41.34;100770.53;1695828;84;21190;-57
2021/04/12 07:30:38;;;;;;;13.18;8.00;;;;;;;12.05;40.19;100754.96;1648721;86;21622;-56
2021/04/12 07:36:58;;;;;;;12.60;7.37;;;;;;;12.34;38.94;100745.69;1826445;77;22637;-55
2021/04/12 07:40:14;;;;;;;15.53;8.18;;;;;;;12.38;38.36;100747.88;1731379;81;21599;-57
2021/04/12 07:42:57;;;;;;;17.02;8.75;;;;;;;12.49;39.01;100740.82;1733441;81;21241;-56
2021/04/12 07:46:10;;;;;;;15.83;7.58;;;;;;;12.59;37.65;100731.09;1753574;80;21586;-55
2021/04/12 07:49:06;;;;;;;14.55;8.05;;;;;;;12.58;38.16;100724.20;1752286;81;21574;-55
2021/04/12 07:52:06;;;;;;;12.82;7.90;;;;;;;12.57;37.60;100720.77;1768042;80;21581;-55
2021/04/12 07:55:19;;;;;;;13.90;8.13;;;;;;;12.54;37.62;100728.91;1764164;80;21629;-55
2021/04/12 07:58:16;;;;;;;15.90;8.68;;;;;;;12.51;37.93;100720.52;1685446;83;21634;-55
2021/04/12 08:01:03;;;;;;;14.90;7.75;;;;;;;12.39;37.57;100719.39;1679845;85;21577;-55
2021/04/12 08:04:08;;;;;;;14.35;8.83;;;;;;;12.30;37.74;100714.20;1672585;84;21120;-56
2021/04/12 08:07:18;;;;;;;15.03;9.03;;;;;;;12.18;38.31;100707.01;1704646;81;21156;-57
2021/04/12 08:10:28;;;;;;;15.28;9.23;;;;;;;12.10;38.56;100701.15;1689783;84;21134;-56
2021/04/12 08:13:56;;;;;;;12.20;7.20;;;;;;;12.05;38.87;100702.09;1686277;84;21193;-55
2021/04/12 08:17:09;;;;;;;16.40;7.97;;;;;;;12.05;38.95;100707.33;1678521;85;22259;-56
2021/04/12 08:20:25;;;;;;;14.30;7.97;;;;;;;12.09;38.71;100700.81;1679588;84;21736;-56
2021/04/12 08:23:43;;;;;;;16.42;8.53;;;;;;;12.15;39.36;100692.05;1681422;84;21139;-57
2021/04/12 08:27:14;;;;;;;14.25;7.92;;;;;;;12.22;39.78;100679.53;1693817;83;21158;-55
2021/04/12 08:30:14;;;;;;;11.90;7.55;;;;;;;12.23;39.01;100668.08;1695537;82;21174;-56
2021/04/12 08:33:23;;;;;;;;;;;;;;;12.16;38.72;100640.81;1716967;82;21733;-57
2021/04/12 08:36:24;;;;;;;16.35;8.55;;;;;;;12.08;39.12;100633.68;1713400;82;20199;-58
2021/04/12 08:39:40;;;;;;;15.32;8.00;;;;;;;12.00;39.93;100667.63;1709005;83;21217;-58
2021/04/12 08:45:42;;;;;;;15.78;7.78;;;;;;;12.00;40.81;100696.94;1823197;77;22195;-55
2021/04/12 08:49:00;;;;;;;11.83;6.83;;;;;;;11.94;41.24;100701.43;1770720;80;21127;-56
2021/04/12 08:52:06;;;;;;;12.68;7.45;;;;;;;11.90;41.74;100705.29;1751601;78;21099;-58
2021/04/12 08:54:55;;;;;;;14.83;7.33;;;;;;;11.87;42.28;100710.34;1779595;78;21696;-56
2021/04/12 08:57:54;;;;;;;11.93;6.37;;;;;;;11.86;42.21;100685.09;1805621;78;21732;-53
2021/04/12 09:01:01;;;;;;;12.33;6.28;;;;;;;11.84;42.23;100660.86;1748348;81;21954;-54
2021/04/12 09:04:16;;;;;;;13.80;7.50;;;;;;;11.83;42.79;100661.34;1764356;81;21190;-54
2021/04/12 09:07:27;;;;;;;17.15;7.70;;;;;;;11.88;43.68;100672.70;1748218;81;21275;-54
2021/04/12 09:10:40;;;;;;;11.50;7.15;;;;;;;11.98;43.96;100672.17;1733368;82;21289;-53
2021/04/12 09:13:49;;;;;;;10.75;6.65;;;;;;;12.07;44.41;100677.87;1729263;82;21179;-53
2021/04/12 09:16:47;;;;;;;18.42;8.53;;;;;;;12.17;44.28;100678.31;1706263;83;21774;-54
2021/04/12 09:19:46;;;;;;;24.67;12.68;;;;;;;12.18;44.46;100677.37;1719207;82;21678;-54
2021/04/12 09:22:50;;;;;;;22.75;12.60;;;;;;;12.19;44.46;100667.22;1727063;83;21134;-54
2021/04/12 09:25:56;;;;;;;20.70;12.33;;;;;;;12.19;44.77;100663.30;1727855;83;21708;-56
2021/04/12 09:28:59;;;;;;;18.37;11.43;;;;;;;12.22;44.85;100663.81;1698795;83;21589;-54
2021/04/12 09:32:04;;;;;;;16.27;8.93;;;;;;;12.28;45.25;100668.47;1745167;81;21134;-54
2021/04/12 09:35:16;;;;;;;16.30;8.28;;;;;;;12.30;45.29;100670.48;1757167;81;21622;-55
2021/04/12 09:38:14;;;;;;;15.20;8.13;;;;;;;12.28;45.36;100680.27;1752000;81;21581;-55
2021/04/12 09:41:18;;;;;;;23.02;11.05;;;;;;;12.25;45.49;100686.30;1707266;82;21537;-54
2021/04/12 09:44:28;;;;;;;23.00;14.23;;;;;;;12.22;45.87;100686.08;1715889;83;21677;-54
2021/04/12 09:47:35;;;;;;;26.73;11.50;;;;;;;12.08;46.33;100681.31;1713359;83;21569;-55
2021/04/12 09:50:24;;;;;;;17.87;9.55;;;;;;;12.00;46.78;100666.81;1654199;85;21186;-54
2021/04/12 09:53:31;;;;;;;19.73;10.30;;;;;;;11.93;47.09;100660.02;1690152;83;21190;-55
2021/04/12 09:56:38;;;;;;;30.97;12.75;;;;;;;11.83;47.46;100657.41;1687683;85;21145;-53
2021/04/12 09:59:52;;;;;;;14.40;7.87;;;;;;;11.74;48.01;100656.11;1689150;84;21587;-54
2021/04/12 10:02:41;;;;;;;15.00;7.50;;;;;;;11.72;48.63;100650.17;1695899;84;21155;-53
2021/04/12 10:05:39;;;;;;;14.50;7.87;;;;;;;11.68;49.17;100653.58;1692118;84;21176;-54
2021/04/12 10:08:28;;;;;;;18.50;9.80;;;;;;;11.67;49.79;100650.59;1688638;84;21781;-54
2021/04/12 10:11:05;;;;;;;23.62;12.88;;;;;;;11.72;50.41;100645.76;1670135;84;21139;-55
2021/04/12 10:14:07;;;;;;;17.60;10.00;;;;;;;11.86;50.95;100645.81;1680283;85;21230;-55
2021/04/12 10:16:39;;;;;;;15.23;7.35;;;;;;;11.96;50.95;100642.69;1669834;85;21724;-55
2021/04/12 10:19:20;;;;;;;14.78;7.70;;;;;;;11.93;50.77;100635.62;1654187;85;21622;-56
2021/04/12 10:22:06;;;;;;;19.80;10.05;;;;;;;11.86;50.95;100628.80;1680138;85;21610;-56
2021/04/12 10:25:00;;;;;;;21.05;10.93;;;;;;;11.90;50.92;100638.02;1680911;85;21186;-54
2021/04/12 10:27:43;;;;;;;18.32;11.05;;;;;;;12.01;51.04;100636.54;1680957;85;21651;-54
2021/04/12 10:30:23;;;;;;;20.02;10.48;;;;;;;12.07;50.99;100617.63;1680228;85;21381;-54
2021/04/12 10:33:00;;;;;;;16.02;8.45;;;;;;;12.07;50.85;100620.25;1680455;85;21634;-55
2021/04/12 10:36:00;;;;;;;17.70;10.15;;;;;;;12.09;50.43;100614.38;1680630;85;22171;-55
2021/04/12 10:38:35;;;;;;;18.40;10.40;;;;;;;12.01;50.36;100627.37;1680665;85;21646;-56
2021/04/12 10:41:25;;;;;;;12.28;8.40;;;;;;;11.97;50.93;100625.18;1698522;84;21205;-55
2021/04/12 10:44:18;;;;;;;14.25;8.75;;;;;;;11.93;50.19;100629.08;1704580;84;21626;-56
2021/04/12 10:47:21;;;;;;;45.52;27.45;;;;;;;11.88;50.39;100628.67;1708666;84;21617;-56
2021/04/12 10:50:01;;;;;;;49.15;29.02;;;;;;;11.90;50.66;100626.23;1709124;84;21721;-54
2021/04/12 10:52:57;;;;;;;30.62;19.25;;;;;;;12.04;51.16;100624.45;1709330;84;21139;-54
2021/04/12 10:55:49;;;;;;;14.60;9.23;;;;;;;12.15;51.05;100617.38;1694242;84;21622;-56
2021/04/12 10:58:45;;;;;;;20.32;9.90;;;;;;;12.19;49.76;100603.86;1669735;84;21660;-53
2021/04/12 11:01:39;;;;;;;13.38;8.03;;;;;;;12.15;49.78;100603.80;1709299;84;21603;-56
2021/04/12 11:04:19;;;;;;;15.40;7.97;;;;;;;12.21;49.78;100591.42;1693556;84;21800;-56
2021/04/12 11:07:16;;;;;;;15.13;7.55;;;;;;;12.21;49.49;100591.91;1705826;84;21751;-56
2021/04/12 11:10:02;;;;;;;12.50;7.55;;;;;;;12.23;49.38;100582.10;1701491;84;21205;-56
2021/04/12 11:12:36;;;;;;;12.68;7.17;;;;;;;12.27;49.02;100582.16;1701636;84;21779;-56
2021/04/12 11:15:20;;;;;;;16.87;8.98;;;;;;;12.28;49.23;100579.37;1846692;77;22195;-55
